Time;durP1;ratioP1;P1;durP2;ratioP2;P2;SDS_P1;SDS_P2;PMS_P1;PMS_P2;Temp;Humidity;BMP_temperature;BMP_pressure;BME280_temperature;BME280_humidity;BME280_pressure;Samples;Min_cycle;Max_cycle;Signal;HPM_P1;HPM_P2
2024/01/03 00:01:34;;;;;;;;;;;9.00;99.90;;;;;;5052019;28;19986;-36
2024/01/03 00:04:01;;;;;;;;;;;8.80;99.90;;;;;;5052990;28;20405;-37
2024/01/03 00:06:29;;;;;;;;;;;8.80;99.90;;;;;;5052937;28;19924;-35
2024/01/03 00:08:56;;;;;;;;;;;8.80;99.90;;;;;;5052254;28;19998;-35
2024/01/03 00:11:23;;;;;;;;;;;8.80;99.90;;;;;;5051593;28;19933;-34
2024/01/03 00:14:05;;;;;;;;;;;8.80;99.90;;;;;;5052560;28;19970;-33
2024/01/03 00:16:31;;;;;;;;;;;8.70;99.90;;;;;;5052137;28;20380;-36
2024/01/03 00:18:59;;;;;;;;;;;8.80;99.90;;;;;;5053349;28;19925;-33
2024/01/03 00:21:26;;;;;;;;;;;8.70;99.90;;;;;;5052382;28;20117;-34
2024/01/03 00:23:55;;;;;;;;;;;8.70;99.90;;;;;;5052312;28;19964;-33
2024/01/03 00:26:22;;;;;;;;;;;8.70;99.90;;;;;;5051258;28;19929;-33
2024/01/03 00:28:48;;;;;;;;;;;8.60;99.90;;;;;;5051786;28;19994;-33
2024/01/03 00:31:17;;;;;;;;;;;8.60;99.90;;;;;;5053297;28;19928;-34
2024/01/03 00:33:44;;;;;;;;;;;8.60;99.90;;;;;;5052155;28;19978;-34
2024/01/03 00:36:12;;;;;;;;;;;8.60;99.90;;;;;;5052565;28;19929;-35
2024/01/03 00:38:42;;;;;;;;;;;8.50;99.90;;;;;;5052496;28;19925;-34
2024/01/03 00:41:09;;;;;;;;;;;8.60;99.90;;;;;;5051940;28;20011;-34
2024/01/03 00:43:36;;;;;;;;;;;8.60;99.90;;;;;;5053136;28;20456;-36
2024/01/03 00:46:03;;;;;;;;;;;8.50;99.90;;;;;;5051721;28;19940;-34
2024/01/03 00:48:29;;;;;;;;;;;8.50;99.90;;;;;;5052422;28;19968;-35
2024/01/03 00:50:56;;;;;;;;;;;8.50;99.90;;;;;;5050590;28;19991;-35
2024/01/03 00:53:24;;;;;;;;;;;8.50;99.90;;;;;;5051804;28;20339;-34
2024/01/03 00:55:50;;;;;;;;;;;8.50;99.90;;;;;;5052213;28;19925;-34
2024/01/03 00:58:17;;;;;;;;;;;8.50;99.90;;;;;;5052318;28;19925;-34
2024/01/03 01:00:44;;;;;;;;;;;8.40;99.90;;;;;;5053095;28;19929;-34
2024/01/03 01:03:10;;;;;;;;;;;8.40;99.90;;;;;;5052239;28;19980;-34
2024/01/03 01:05:37;;;;;;;;;;;8.40;99.90;;;;;;5052673;28;19929;-35
2024/01/03 01:08:04;;;;;;;;;;;8.30;99.90;;;;;;5053478;28;19924;-33
2024/01/03 01:10:32;;;;;;;;;;;8.30;99.90;;;;;;5050201;28;20090;-34
2024/01/03 01:12:59;;;;;;;;;;;8.30;99.90;;;;;;5052102;28;19994;-34
2024/01/03 01:15:25;;;;;;;;;;;8.30;99.90;;;;;;5052886;28;19979;-33
2024/01/03 01:17:52;;;;;;;;;;;8.30;99.90;;;;;;5050431;28;19929;-34
2024/01/03 01:20:18;;;;;;;;;;;8.30;99.90;;;;;;5051425;28;19979;-33
2024/01/03 01:22:45;;;;;;;;;;;8.30;99.90;;;;;;5051576;28;19986;-33
2024/01/03 01:25:12;;;;;;;;;;;8.30;99.90;;;;;;5049698;28;19924;-33
2024/01/03 01:27:40;;;;;;;;;;;8.30;99.90;;;;;;5052718;28;19970;-33
2024/01/03 01:30:07;;;;;;;;;;;8.30;99.90;;;;;;5052280;28;19925;-33
2024/01/03 01:32:34;;;;;;;;;;;8.30;99.90;;;;;;5049521;28;19968;-33
2024/01/03 01:35:00;;;;;;;;;;;8.30;99.90;;;;;;5051954;28;19933;-33
2024/01/03 01:37:27;;;;;;;;;;;8.30;99.90;;;;;;5053613;28;20474;-34
2024/01/03 01:39:53;;;;;;;;;;;8.30;99.90;;;;;;5051166;28;19936;-33
2024/01/03 01:42:20;;;;;;;;;;;8.30;99.90;;;;;;5051384;28;19925;-34
2024/01/03 01:44:48;;;;;;;;;;;8.40;99.90;;;;;;5052517;28;19924;-33
2024/01/03 01:47:15;;;;;;;;;;;8.40;99.90;;;;;;5050011;28;19990;-34
2024/01/03 01:49:42;;;;;;;;;;;8.40;99.90;;;;;;5052790;28;19990;-33
2024/01/03 01:52:09;;;;;;;;;;;8.40;99.90;;;;;;5052447;28;19924;-33
2024/01/03 01:54:35;;;;;;;;;;;8.40;99.90;;;;;;5051311;28;20348;-33
2024/01/03 01:57:02;;;;;;;;;;;8.40;99.90;;;;;;5052907;28;19971;-34
2024/01/03 01:59:29;;;;;;;;;;;8.40;99.90;;;;;;5048375;28;19956;-34
2024/01/03 02:01:57;;;;;;;;;;;8.50;99.90;;;;;;5051061;28;19925;-33
2024/01/03 02:04:23;;;;;;;;;;;8.50;99.90;;;;;;5050132;28;19928;-33
2024/01/03 02:06:50;;;;;;;;;;;8.50;99.90;;;;;;5050128;28;19932;-34
2024/01/03 02:09:16;;;;;;;;;;;8.50;99.90;;;;;;5050519;28;19924;-34
2024/01/03 02:11:46;;;;;;;;;;;8.50;99.90;;;;;;5050787;28;19924;-35
2024/01/03 02:14:13;;;;;;;;;;;8.60;99.90;;;;;;5050723;28;19969;-35
2024/01/03 02:16:39;;;;;;;;;;;8.60;99.90;;;;;;5051437;28;19978;-35
2024/01/03 02:19:07;;;;;;;;;;;8.60;99.90;;;;;;5051169;28;20395;-34
2024/01/03 02:21:35;;;;;;;;;;;8.60;99.90;;;;;;5052274;28;20366;-34
2024/01/03 02:24:02;;;;;;;;;;;8.70;99.90;;;;;;5050288;28;20017;-34
2024/01/03 02:26:29;;;;;;;;;;;8.70;99.90;;;;;;5048731;28;19924;-35
2024/01/03 02:28:55;;;;;;;;;;;8.70;99.90;;;;;;5050978;28;19924;-35
2024/01/03 02:31:22;;;;;;;;;;;8.70;99.90;;;;;;5048026;28;19982;-34
2024/01/03 02:33:48;;;;;;;;;;;8.70;99.90;;;;;;5050000;28;19951;-34
2024/01/03 02:36:15;;;;;;;;;;;8.80;99.90;;;;;;5050226;28;19928;-35
2024/01/03 02:38:44;;;;;;;;;;;8.80;99.90;;;;;;5051213;28;19998;-34
2024/01/03 02:41:10;;;;;;;;;;;8.80;99.90;;;;;;5051750;28;19924;-34
2024/01/03 02:43:37;;;;;;;;;;;8.80;99.90;;;;;;5049724;28;19929;-35
2024/01/03 02:46:03;;;;;;;;;;;8.80;99.90;;;;;;5048687;28;19928;-34
2024/01/03 02:48:30;;;;;;;;;;;8.80;99.90;;;;;;5052468;28;19978;-35
2024/01/03 02:50:57;;;;;;;;;;;8.80;99.90;;;;;;5051030;28;19932;-34
2024/01/03 02:53:24;;;;;;;;;;;8.80;99.90;;;;;;5049691;28;19924;-35
2024/01/03 02:55:51;;;;;;;;;;;8.80;99.90;;;;;;5047137;28;19925;-34
2024/01/03 02:58:18;;;;;;;;;;;8.70;99.90;;;;;;5049562;28;19925;-35
2024/01/03 03:00:45;;;;;;;;;;;8.70;99.90;;;;;;5048912;28;19929;-34
2024/01/03 03:03:11;;;;;;;;;;;8.60;99.90;;;;;;5051491;28;20336;-35
2024/01/03 03:05:38;;;;;;;;;;;8.60;99.90;;;;;;5048122;28;19925;-34
2024/01/03 03:08:05;;;;;;;;;;;8.60;99.90;;;;;;5051550;28;19986;-35
2024/01/03 03:10:32;;;;;;;;;;;8.60;99.90;;;;;;5051502;28;19932;-33
2024/01/03 03:13:00;;;;;;;;;;;8.50;99.90;;;;;;5048597;28;19924;-34
2024/01/03 03:15:26;;;;;;;;;;;8.50;99.90;;;;;;5048974;28;19987;-33
2024/01/03 03:17:53;;;;;;;;;;;8.50;99.90;;;;;;5050781;28;20321;-32
2024/01/03 03:20:20;;;;;;;;;;;8.50;99.90;;;;;;5048880;28;19924;-33
2024/01/03 03:22:46;;;;;;;;;;;8.50;99.90;;;;;;5048410;28;19924;-33
2024/01/03 03:25:13;;;;;;;;;;;8.50;99.90;;;;;;5049350;28;19971;-33
2024/01/03 03:27:39;;;;;;;;;;;8.50;99.90;;;;;;5048528;28;19929;-32
2024/01/03 03:30:08;;;;;;;;;;;8.50;99.90;;;;;;5049405;28;20346;-33
2024/01/03 03:32:35;;;;;;;;;;;8.50;99.90;;;;;;5049244;28;19971;-35
2024/01/03 03:38:23;;;;;;;;;;;8.50;99.90;;;;;;5051494;28;20329;-34
2024/01/03 03:40:50;;;;;;;;;;;8.50;99.90;;;;;;5049355;28;19925;-34
2024/01/03 03:43:17;;;;;;;;;;;8.50;99.90;;;;;;5049914;28;19924;-35
2024/01/03 03:45:45;;;;;;;;;;;8.50;99.90;;;;;;5049836;28;19925;-33
2024/01/03 03:48:11;;;;;;;;;;;8.50;99.90;;;;;;5050402;28;19974;-33
2024/01/03 03:50:38;;;;;;;;;;;8.50;99.90;;;;;;5050136;28;19924;-34
2024/01/03 03:53:10;;;;;;;;;;;8.40;99.90;;;;;;5050177;28;19933;-34
2024/01/03 03:55:40;;;;;;;;;;;8.40;99.90;;;;;;5049365;28;19932;-36
2024/01/03 03:58:06;;;;;;;;;;;8.40;99.90;;;;;;5050075;28;20394;-36
2024/01/03 04:00:33;;;;;;;;;;;8.50;99.90;;;;;;5049861;28;19983;-34
2024/01/03 04:03:01;;;;;;;;;;;8.50;99.90;;;;;;5049787;28;19955;-34
2024/01/03 04:05:27;;;;;;;;;;;8.50;99.90;;;;;;5044843;28;19925;-33
2024/01/03 04:07:54;;;;;;;;;;;8.50;99.90;;;;;;5052859;28;19978;-33
2024/01/03 04:10:21;;;;;;;;;;;8.50;99.90;;;;;;5052660;28;20438;-34
2024/01/03 04:12:47;;;;;;;;;;;8.60;99.90;;;;;;5052982;28;19928;-34
2024/01/03 04:15:14;;;;;;;;;;;8.70;99.90;;;;;;5052317;28;19925;-34
2024/01/03 04:17:41;;;;;;;;;;;8.70;99.90;;;;;;5052547;28;19925;-34
2024/01/03 04:20:09;;;;;;;;;;;8.70;99.90;;;;;;5054530;28;19978;-34
2024/01/03 04:22:36;;;;;;;;;;;8.80;99.90;;;;;;5053735;28;19960;-33
2024/01/03 04:25:03;;;;;;;;;;;9.00;99.90;;;;;;5051649;28;19929;-33
2024/01/03 04:27:29;;;;;;;;;;;8.80;99.90;;;;;;5052672;28;19925;-35
2024/01/03 04:29:56;;;;;;;;;;;8.90;99.90;;;;;;5052657;28;19925;-34
2024/01/03 04:32:22;;;;;;;;;;;8.90;99.90;;;;;;5053389;28;19940;-34
2024/01/03 04:34:49;;;;;;;;;;;9.10;99.90;;;;;;5052762;28;20205;-36
2024/01/03 04:37:17;;;;;;;;;;;9.00;99.90;;;;;;5054838;28;20335;-34
2024/01/03 04:39:44;;;;;;;;;;;9.00;99.90;;;;;;5035666;28;19933;-34
2024/01/03 04:42:10;;;;;;;;;;;9.00;99.90;;;;;;5050742;28;19976;-34
2024/01/03 04:44:37;;;;;;;;;;;9.00;99.90;;;;;;5052307;28;19971;-34
2024/01/03 04:47:04;;;;;;;;;;;9.00;99.90;;;;;;5053341;28;19948;-35
2024/01/03 04:49:31;;;;;;;;;;;9.00;99.90;;;;;;5053496;28;19929;-35
2024/01/03 04:51:57;;;;;;;;;;;9.10;99.90;;;;;;5053422;28;19951;-35
2024/01/03 04:54:25;;;;;;;;;;;9.10;99.90;;;;;;5052245;28;20377;-35
2024/01/03 04:56:52;;;;;;;;;;;9.10;99.90;;;;;;5053572;28;19933;-34
2024/01/03 04:59:19;;;;;;;;;;;9.10;99.90;;;;;;5054768;28;19971;-34
2024/01/03 05:01:45;;;;;;;;;;;9.20;99.90;;;;;;5051069;28;19987;-35
2024/01/03 05:04:12;;;;;;;;;;;9.10;99.90;;;;;;5054280;28;20343;-35
2024/01/03 05:06:39;;;;;;;;;;;9.20;99.90;;;;;;5054170;28;19968;-34
2024/01/03 05:09:06;;;;;;;;;;;9.20;99.90;;;;;;5053130;28;20365;-34
2024/01/03 05:11:34;;;;;;;;;;;9.20;99.90;;;;;;5053492;28;19924;-35
2024/01/03 05:14:00;;;;;;;;;;;9.30;99.90;;;;;;5053852;28;20434;-34
2024/01/03 05:16:27;;;;;;;;;;;9.20;99.90;;;;;;5052246;28;20309;-36
2024/01/03 05:18:54;;;;;;;;;;;9.30;99.90;;;;;;5052253;28;19975;-33
2024/01/03 05:21:20;;;;;;;;;;;9.30;99.90;;;;;;5052850;28;19925;-34
2024/01/03 05:23:47;;;;;;;;;;;9.30;99.90;;;;;;5053767;28;20300;-33
2024/01/03 05:26:14;;;;;;;;;;;9.30;99.90;;;;;;5052902;28;20450;-35
2024/01/03 05:28:42;;;;;;;;;;;9.30;99.90;;;;;;5052889;28;19929;-35
2024/01/03 05:31:08;;;;;;;;;;;9.30;99.90;;;;;;5039870;28;19932;-34
2024/01/03 05:33:35;;;;;;;;;;;9.40;99.90;;;;;;5033287;28;19929;-35
2024/01/03 05:36:03;;;;;;;;;;;9.40;99.90;;;;;;5043174;28;19935;-35
2024/01/03 05:38:30;;;;;;;;;;;9.40;99.90;;;;;;5053330;28;19925;-34
2024/01/03 05:40:57;;;;;;;;;;;9.30;99.90;;;;;;5052899;28;19929;-34
2024/01/03 05:43:24;;;;;;;;;;;9.30;99.90;;;;;;5052549;28;20365;-35
2024/01/03 05:45:52;;;;;;;;;;;9.30;99.90;;;;;;5051528;28;20027;-36
2024/01/03 05:48:19;;;;;;;;;;;9.30;99.90;;;;;;5052929;28;19924;-35
2024/01/03 05:50:46;;;;;;;;;;;9.40;99.90;;;;;;5052485;28;20343;-35
2024/01/03 05:53:12;;;;;;;;;;;9.40;99.90;;;;;;5052262;28;19935;-34
2024/01/03 05:55:39;;;;;;;;;;;9.40;99.90;;;;;;5052645;28;20006;-33
2024/01/03 05:58:05;;;;;;;;;;;9.40;99.90;;;;;;5051856;28;19928;-35
2024/01/03 06:00:32;;;;;;;;;;;9.40;99.90;;;;;;5051680;28;19929;-35
2024/01/03 06:03:00;;;;;;;;;;;9.40;99.90;;;;;;5051676;28;20383;-34
2024/01/03 06:05:27;;;;;;;;;;;9.40;99.90;;;;;;5051902;28;19925;-35
2024/01/03 06:07:53;;;;;;;;;;;9.30;99.90;;;;;;5051910;28;19925;-36
2024/01/03 06:10:20;;;;;;;;;;;9.40;99.90;;;;;;5052380;28;19933;-34
2024/01/03 06:12:46;;;;;;;;;;;9.40;99.90;;;;;;5051563;28;19986;-34
2024/01/03 06:15:13;;;;;;;;;;;9.40;99.90;;;;;;5052188;28;20361;-36
2024/01/03 06:17:40;;;;;;;;;;;9.40;99.90;;;;;;5051820;28;19928;-34
2024/01/03 06:20:09;;;;;;;;;;;9.40;99.90;;;;;;5051612;28;20380;-34
2024/01/03 06:22:36;;;;;;;;;;;9.40;99.90;;;;;;5051137;28;19925;-35
2024/01/03 06:25:02;;;;;;;;;;;9.40;99.90;;;;;;5048883;28;19936;-33
2024/01/03 06:27:29;;;;;;;;;;;9.40;99.90;;;;;;5050420;28;19925;-34
2024/01/03 06:29:56;;;;;;;;;;;9.40;99.90;;;;;;5042117;28;19925;-34
2024/01/03 06:32:22;;;;;;;;;;;9.40;99.90;;;;;;5049883;28;19972;-35
2024/01/03 06:34:49;;;;;;;;;;;9.40;99.90;;;;;;5051242;28;19924;-35
2024/01/03 06:37:17;;;;;;;;;;;9.30;99.90;;;;;;5050197;28;19925;-34
2024/01/03 06:39:44;;;;;;;;;;;9.30;99.90;;;;;;5051026;28;19947;-34
2024/01/03 06:42:10;;;;;;;;;;;9.30;99.90;;;;;;5052805;28;19951;-33
2024/01/03 06:44:37;;;;;;;;;;;9.30;99.90;;;;;;5050568;28;19971;-33
2024/01/03 06:47:04;;;;;;;;;;;9.30;99.90;;;;;;5051223;28;20191;-34
2024/01/03 06:49:30;;;;;;;;;;;9.30;99.90;;;;;;5051498;28;19924;-34
2024/01/03 06:51:57;;;;;;;;;;;9.30;99.90;;;;;;5051908;28;19925;-33
2024/01/03 06:54:25;;;;;;;;;;;9.20;99.90;;;;;;5050372;28;19929;-33
2024/01/03 06:56:52;;;;;;;;;;;9.20;99.90;;;;;;5050775;28;19925;-34
2024/01/03 06:59:19;;;;;;;;;;;9.20;99.90;;;;;;5051459;28;20273;-34
2024/01/03 07:01:46;;;;;;;;;;;9.20;99.90;;;;;;5050612;28;19925;-34
2024/01/03 07:04:13;;;;;;;;;;;9.20;99.90;;;;;;5052042;28;19929;-34
2024/01/03 07:06:39;;;;;;;;;;;9.20;99.90;;;;;;5050588;28;19951;-35
2024/01/03 07:09:06;;;;;;;;;;;9.20;99.90;;;;;;5051018;28;19928;-34
2024/01/03 07:11:34;;;;;;;;;;;9.10;99.90;;;;;;5052110;28;19944;-36
2024/01/03 07:14:01;;;;;;;;;;;9.10;99.90;;;;;;5050311;28;20438;-33
2024/01/03 07:16:27;;;;;;;;;;;9.20;99.90;;;;;;5051124;28;19925;-36
2024/01/03 07:18:54;;;;;;;;;;;9.20;99.90;;;;;;5050542;28;19925;-34
2024/01/03 07:21:22;;;;;;;;;;;9.20;99.90;;;;;;5050847;28;20288;-33
2024/01/03 07:23:49;;;;;;;;;;;9.20;99.90;;;;;;5051708;28;20269;-34
2024/01/03 07:26:15;;;;;;;;;;;9.20;99.90;;;;;;5052124;28;20029;-34
2024/01/03 07:28:43;;;;;;;;;;;9.30;99.90;;;;;;5049788;28;19978;-35
2024/01/03 07:31:11;;;;;;;;;;;9.30;99.90;;;;;;5050626;28;19929;-35
2024/01/03 07:33:39;;;;;;;;;;;9.30;99.90;;;;;;5051894;28;19925;-35
2024/01/03 07:36:05;;;;;;;;;;;9.30;99.90;;;;;;5051654;28;19937;-37
2024/01/03 07:38:32;;;;;;;;;;;9.30;99.90;;;;;;5049715;28;19925;-36
2024/01/03 07:40:59;;;;;;;;;;;9.30;99.90;;;;;;5052861;28;19925;-34
2024/01/03 07:43:26;;;;;;;;;;;9.30;99.90;;;;;;5055082;28;19971;-36
2024/01/03 07:45:55;;;;;;;;;;;9.20;99.90;;;;;;5055597;28;19933;-35
2024/01/03 07:48:21;;;;;;;;;;;9.20;99.90;;;;;;5054395;28;19925;-35
2024/01/03 07:50:48;;;;;;;;;;;9.20;99.90;;;;;;5054363;28;19929;-34
2024/01/03 07:53:15;;;;;;;;;;;9.20;99.90;;;;;;5055783;28;19983;-33
2024/01/03 07:55:41;;;;;;;;;;;9.20;99.90;;;;;;5055919;28;20007;-33
2024/01/03 07:58:11;;;;;;;;;;;9.20;99.90;;;;;;5055051;28;19976;-33
2024/01/03 08:00:37;;;;;;;;;;;9.20;99.90;;;;;;5054448;28;19925;-34
2024/01/03 08:03:05;;;;;;;;;;;9.20;99.90;;;;;;5055305;28;19978;-36
2024/01/03 08:05:32;;;;;;;;;;;9.20;99.90;;;;;;5054355;28;19978;-35
2024/01/03 08:07:59;;;;;;;;;;;9.20;99.90;;;;;;5055550;28;19924;-34
2024/01/03 08:10:25;;;;;;;;;;;9.20;99.90;;;;;;5054594;28;19928;-36
2024/01/03 08:12:52;;;;;;;;;;;9.20;99.90;;;;;;5055510;28;19978;-36
2024/01/03 08:15:18;;;;;;;;;;;9.10;99.90;;;;;;5053842;28;19929;-34
2024/01/03 08:17:45;;;;;;;;;;;9.10;99.90;;;;;;5055208;28;19929;-34
2024/01/03 08:20:13;;;;;;;;;;;9.10;99.90;;;;;;5053585;28;19975;-36
2024/01/03 08:22:40;;;;;;;;;;;9.00;99.90;;;;;;5054075;28;19978;-33
2024/01/03 08:25:07;;;;;;;;;;;9.00;99.90;;;;;;5055279;28;20262;-34
2024/01/03 08:27:36;;;;;;;;;;;9.00;99.90;;;;;;5053705;28;20373;-35
2024/01/03 08:30:02;;;;;;;;;;;8.90;99.90;;;;;;5054000;28;19925;-35
2024/01/03 08:32:29;;;;;;;;;;;9.00;99.90;;;;;;5054034;28;20380;-36
2024/01/03 08:34:56;;;;;;;;;;;8.90;99.90;;;;;;5053860;28;19929;-34
2024/01/03 08:37:24;;;;;;;;;;;8.90;99.90;;;;;;5054268;28;20025;-34
2024/01/03 08:39:50;;;;;;;;;;;8.90;99.90;;;;;;5052776;28;19924;-35
2024/01/03 08:42:17;;;;;;;;;;;8.90;99.90;;;;;;5054593;28;19929;-34
2024/01/03 08:44:43;;;;;;;;;;;8.90;99.90;;;;;;5054668;28;19931;-34
2024/01/03 08:47:10;;;;;;;;;;;8.90;99.90;;;;;;5053519;28;19925;-34
2024/01/03 08:49:37;;;;;;;;;;;8.90;99.90;;;;;;5053642;28;19971;-34
2024/01/03 08:52:04;;;;;;;;;;;8.80;99.90;;;;;;5050202;28;19925;-35
2024/01/03 08:54:32;;;;;;;;;;;8.90;99.90;;;;;;5053908;28;19947;-34
2024/01/03 08:56:59;;;;;;;;;;;8.90;99.90;;;;;;5053657;28;20372;-36
2024/01/03 08:59:26;;;;;;;;;;;8.90;99.90;;;;;;5053342;28;19975;-34
2024/01/03 09:01:53;;;;;;;;;;;9.00;99.90;;;;;;5053700;28;19925;-35
2024/01/03 09:04:20;;;;;;;;;;;9.00;99.90;;;;;;5053090;28;19929;-36
2024/01/03 09:06:47;;;;;;;;;;;9.00;99.90;;;;;;5051924;28;19925;-33
2024/01/03 09:09:14;;;;;;;;;;;9.10;99.90;;;;;;5053083;28;19932;-34
2024/01/03 09:11:42;;;;;;;;;;;9.10;99.90;;;;;;5053060;28;19929;-35
2024/01/03 09:14:09;;;;;;;;;;;9.10;99.90;;;;;;5052838;28;19971;-33
2024/01/03 09:16:36;;;;;;;;;;;9.10;99.90;;;;;;5052472;28;19932;-34
2024/01/03 09:19:03;;;;;;;;;;;9.20;99.90;;;;;;5051596;28;19928;-33
2024/01/03 09:21:30;;;;;;;;;;;9.20;99.90;;;;;;5052870;28;19925;-33
2024/01/03 09:23:58;;;;;;;;;;;9.30;99.90;;;;;;5052759;28;20295;-33
2024/01/03 09:26:24;;;;;;;;;;;9.30;99.90;;;;;;5052693;28;20416;-34
2024/01/03 09:28:53;;;;;;;;;;;9.30;99.90;;;;;;5052717;28;19974;-34
2024/01/03 09:31:19;;;;;;;;;;;9.30;99.90;;;;;;5052119;28;19924;-34
2024/01/03 09:33:46;;;;;;;;;;;9.30;99.90;;;;;;5051699;28;19925;-35
2024/01/03 09:36:17;;;;;;;;;;;9.30;99.90;;;;;;5052601;28;20339;-34
2024/01/03 09:38:43;;;;;;;;;;;9.30;99.90;;;;;;5052487;28;20024;-34
2024/01/03 09:41:12;;;;;;;;;;;9.30;99.90;;;;;;5052798;28;19994;-34
2024/01/03 09:43:39;;;;;;;;;;;9.40;99.90;;;;;;5052707;28;20008;-34
2024/01/03 09:46:09;;;;;;;;;;;9.40;99.90;;;;;;5050059;28;19924;-34
2024/01/03 09:48:35;;;;;;;;;;;9.40;99.90;;;;;;5052291;28;19924;-35
2024/01/03 09:51:03;;;;;;;;;;;9.50;99.90;;;;;;5052502;28;19929;-34
2024/01/03 09:53:30;;;;;;;;;;;9.50;99.90;;;;;;5053581;28;20296;-34
2024/01/03 09:55:56;;;;;;;;;;;9.50;99.90;;;;;;5051314;28;19978;-35
2024/01/03 09:58:24;;;;;;;;;;;9.60;99.90;;;;;;5039050;28;19980;-33
2024/01/03 10:00:51;;;;;;;;;;;9.60;99.90;;;;;;5045013;28;19974;-34
2024/01/03 10:03:19;;;;;;;;;;;9.60;99.90;;;;;;5051646;28;19928;-33
2024/01/03 10:05:45;;;;;;;;;;;9.70;99.90;;;;;;5052350;28;19931;-34
2024/01/03 10:08:16;;;;;;;;;;;9.70;99.90;;;;;;5052885;28;19932;-36
2024/01/03 10:10:44;;;;;;;;;;;9.80;99.90;;;;;;5051394;28;20541;-34
2024/01/03 10:13:15;;;;;;;;;;;9.90;99.90;;;;;;5051648;28;19925;-34
2024/01/03 10:15:42;;;;;;;;;;;10.00;99.90;;;;;;5052019;28;19931;-33
2024/01/03 10:18:10;;;;;;;;;;;10.10;99.90;;;;;;5052055;28;19928;-33
2024/01/03 10:20:39;;;;;;;;;;;10.10;99.90;;;;;;5051536;28;19925;-34
2024/01/03 10:23:06;;;;;;;;;;;10.10;99.90;;;;;;5052906;28;20003;-34
2024/01/03 10:25:33;;;;;;;;;;;10.00;99.90;;;;;;5050385;28;19925;-35
2024/01/03 10:28:00;;;;;;;;;;;10.00;99.90;;;;;;5052753;28;20400;-34
2024/01/03 10:30:26;;;;;;;;;;;10.00;99.90;;;;;;5051182;28;19975;-34
2024/01/03 10:32:57;;;;;;;;;;;9.90;99.90;;;;;;5052822;28;20043;-37
2024/01/03 10:35:24;;;;;;;;;;;9.90;99.90;;;;;;5052903;28;19925;-35
2024/01/03 10:37:52;;;;;;;;;;;9.90;99.90;;;;;;5051690;28;19924;-33
2024/01/03 10:40:19;;;;;;;;;;;9.80;99.90;;;;;;5051846;28;19931;-35
2024/01/03 10:42:47;;;;;;;;;;;9.90;99.90;;;;;;5050053;28;20405;-34
2024/01/03 10:45:14;;;;;;;;;;;9.80;99.90;;;;;;5051688;28;19968;-34
2024/01/03 10:47:41;;;;;;;;;;;9.80;99.90;;;;;;5051155;28;19928;-33
2024/01/03 10:50:07;;;;;;;;;;;9.80;99.90;;;;;;5050961;28;19925;-35
2024/01/03 10:52:34;;;;;;;;;;;9.70;99.90;;;;;;5050999;28;19924;-34
2024/01/03 10:55:04;;;;;;;;;;;9.70;99.90;;;;;;5050489;28;19970;-34
2024/01/03 10:57:32;;;;;;;;;;;9.70;99.90;;;;;;5051132;28;20365;-33
2024/01/03 11:00:00;;;;;;;;;;;9.70;99.90;;;;;;5051026;28;20422;-34
2024/01/03 11:02:27;;;;;;;;;;;9.70;99.90;;;;;;5050938;28;19925;-34
2024/01/03 11:04:54;;;;;;;;;;;9.80;99.90;;;;;;5052173;28;19941;-34
2024/01/03 11:07:23;;;;;;;;;;;9.90;99.90;;;;;;5052002;28;19925;-33
2024/01/03 11:09:50;;;;;;;;;;;9.90;99.90;;;;;;5051485;28;19924;-34
2024/01/03 11:12:18;;;;;;;;;;;9.90;99.90;;;;;;5051237;28;20356;-35
2024/01/03 11:14:45;;;;;;;;;;;9.90;99.90;;;;;;5051442;28;20332;-34
2024/01/03 11:17:32;;;;;;;;;;;9.90;99.90;;;;;;5050923;28;20326;-35
2024/01/03 11:20:06;;;;;;;;;;;9.90;99.90;;;;;;5050419;28;19986;-34
2024/01/03 11:22:48;;;;;;;;;;;9.90;99.90;;;;;;5049870;28;20288;-35
2024/01/03 11:25:18;;;;;;;;;;;9.90;99.90;;;;;;5046396;28;19933;-33
2024/01/03 11:27:46;;;;;;;;;;;9.80;99.90;;;;;;5043663;28;20293;-35
2024/01/03 11:30:22;;;;;;;;;;;9.80;99.90;;;;;;5051041;28;20395;-34
2024/01/03 11:32:49;;;;;;;;;;;9.80;99.90;;;;;;5049052;28;19925;-35
2024/01/03 11:35:16;;;;;;;;;;;9.90;99.90;;;;;;5051943;28;19924;-36
2024/01/03 11:37:42;;;;;;;;;;;9.90;99.90;;;;;;5048848;28;19925;-34
2024/01/03 11:40:19;;;;;;;;;;;9.90;99.90;;;;;;5048782;28;20371;-33
2024/01/03 11:42:47;;;;;;;;;;;9.90;99.90;;;;;;5040407;28;19928;-35
2024/01/03 11:45:14;;;;;;;;;;;9.90;99.90;;;;;;5049336;28;19932;-35
2024/01/03 11:47:42;;;;;;;;;;;9.80;99.90;;;;;;5058521;28;19925;-34
2024/01/03 11:50:09;;;;;;;;;;;9.90;99.90;;;;;;5056746;28;19993;-33
2024/01/03 11:52:36;;;;;;;;;;;9.80;99.90;;;;;;5068250;28;19962;-35
2024/01/03 11:55:03;;;;;;;;;;;9.80;99.90;;;;;;5054330;28;20380;-36
2024/01/03 11:57:30;;;;;;;;;;;9.80;99.90;;;;;;5060465;28;19929;-34
2024/01/03 11:59:59;;;;;;;;;;;9.80;99.90;;;;;;5051148;28;19961;-35
2024/01/03 12:02:26;;;;;;;;;;;9.90;99.90;;;;;;5044281;28;20035;-35
2024/01/03 12:04:59;;;;;;;;;;;9.90;99.90;;;;;;5049194;28;19971;-35
2024/01/03 12:07:25;;;;;;;;;;;9.90;99.90;;;;;;5050105;28;20281;-35
2024/01/03 12:09:52;;;;;;;;;;;9.90;99.90;;;;;;5050238;28;20380;-34
2024/01/03 12:12:18;;;;;;;;;;;9.90;99.90;;;;;;5050660;28;20476;-34
2024/01/03 12:14:50;;;;;;;;;;;9.90;99.90;;;;;;5050614;28;19995;-34
2024/01/03 12:17:23;;;;;;;;;;;9.90;99.90;;;;;;5051591;28;19924;-34
2024/01/03 12:19:50;;;;;;;;;;;9.90;99.90;;;;;;5048655;28;20438;-33
2024/01/03 12:22:20;;;;;;;;;;;9.80;99.90;;;;;;5049874;28;19924;-34
2024/01/03 12:24:46;;;;;;;;;;;9.80;99.90;;;;;;5050900;28;19971;-34
2024/01/03 12:27:20;;;;;;;;;;;9.80;99.90;;;;;;5052583;28;20458;-33
2024/01/03 12:29:46;;;;;;;;;;;9.70;99.90;;;;;;5035342;28;20358;-34
2024/01/03 12:32:13;;;;;;;;;;;9.70;99.90;;;;;;5050020;28;19925;-33
2024/01/03 12:34:41;;;;;;;;;;;9.70;99.90;;;;;;5053483;28;19987;-34
2024/01/03 12:37:08;;;;;;;;;;;9.60;99.90;;;;;;5053863;28;19925;-35
2024/01/03 12:39:35;;;;;;;;;;;9.60;99.90;;;;;;5053556;28;19929;-34
2024/01/03 12:42:04;;;;;;;;;;;9.60;99.90;;;;;;5053734;28;19947;-34
2024/01/03 12:44:31;;;;;;;;;;;9.60;99.90;;;;;;5052681;28;20335;-34
2024/01/03 12:46:57;;;;;;;;;;;9.70;99.90;;;;;;5052246;28;20240;-34
2024/01/03 12:49:24;;;;;;;;;;;9.70;99.90;;;;;;5053695;28;19975;-34
2024/01/03 12:51:52;;;;;;;;;;;9.70;99.90;;;;;;5054956;28;20007;-33
2024/01/03 12:54:19;;;;;;;;;;;9.60;99.90;;;;;;5054910;28;20293;-34
2024/01/03 12:56:46;;;;;;;;;;;9.70;99.90;;;;;;5053571;28;20398;-34
2024/01/03 12:59:12;;;;;;;;;;;9.70;99.90;;;;;;5050132;28;19962;-34
2024/01/03 13:01:39;;;;;;;;;;;9.70;99.90;;;;;;5049594;28;20000;-36
2024/01/03 13:04:06;;;;;;;;;;;9.70;99.90;;;;;;5049928;28;19987;-35
2024/01/03 13:06:32;;;;;;;;;;;9.80;99.90;;;;;;5050999;28;19925;-35
2024/01/03 13:09:04;;;;;;;;;;;9.70;99.90;;;;;;5051766;28;20364;-34
2024/01/03 13:11:31;;;;;;;;;;;9.70;99.90;;;;;;5044115;28;20280;-36
2024/01/03 13:13:58;;;;;;;;;;;9.70;99.90;;;;;;5057825;28;19924;-35
2024/01/03 13:16:25;;;;;;;;;;;9.70;99.90;;;;;;5051973;28;19925;-34
2024/01/03 13:18:51;;;;;;;;;;;9.60;99.90;;;;;;5053443;28;19925;-34
2024/01/03 13:21:18;;;;;;;;;;;9.70;99.90;;;;;;5053011;28;19986;-34
2024/01/03 13:23:45;;;;;;;;;;;9.60;99.90;;;;;;5053047;28;19928;-33
2024/01/03 13:26:13;;;;;;;;;;;9.60;99.90;;;;;;5053170;28;20015;-35
2024/01/03 13:28:41;;;;;;;;;;;9.50;99.90;;;;;;5050547;28;19924;-34
2024/01/03 13:31:12;;;;;;;;;;;9.50;99.90;;;;;;5053187;28;19932;-33
2024/01/03 13:33:39;;;;;;;;;;;9.50;99.90;;;;;;5053016;28;19971;-35
2024/01/03 13:36:06;;;;;;;;;;;9.50;99.90;;;;;;5052942;28;19936;-33
2024/01/03 13:38:32;;;;;;;;;;;9.50;99.90;;;;;;5051605;28;19925;-33
2024/01/03 13:40:59;;;;;;;;;;;9.50;99.90;;;;;;5053908;28;19925;-34
2024/01/03 13:43:27;;;;;;;;;;;9.50;99.90;;;;;;5050093;28;20415;-35
2024/01/03 13:45:54;;;;;;;;;;;9.50;99.90;;;;;;5052702;28;19925;-34
2024/01/03 13:48:21;;;;;;;;;;;9.50;99.90;;;;;;5051671;28;20376;-34
2024/01/03 13:50:48;;;;;;;;;;;9.50;99.90;;;;;;5052139;28;20019;-33
2024/01/03 13:53:17;;;;;;;;;;;9.40;99.90;;;;;;5053444;28;19932;-33
2024/01/03 13:55:44;;;;;;;;;;;9.40;99.90;;;;;;5053178;28;20015;-35
2024/01/03 13:58:10;;;;;;;;;;;9.40;99.90;;;;;;5047804;28;19929;-33
2024/01/03 14:00:38;;;;;;;;;;;9.40;99.90;;;;;;5050913;28;19924;-34
2024/01/03 14:03:05;;;;;;;;;;;9.40;99.90;;;;;;5052128;28;19928;-34
2024/01/03 14:05:32;;;;;;;;;;;9.40;99.90;;;;;;5052913;28;19924;-33
2024/01/03 14:08:01;;;;;;;;;;;9.40;99.90;;;;;;5051781;28;20292;-34
2024/01/03 14:10:28;;;;;;;;;;;9.40;99.90;;;;;;5047635;28;19925;-35
2024/01/03 14:12:55;;;;;;;;;;;9.40;99.90;;;;;;5046118;28;19935;-33
2024/01/03 14:15:22;;;;;;;;;;;9.40;99.90;;;;;;5050970;28;19970;-35
2024/01/03 14:17:50;;;;;;;;;;;9.40;99.90;;;;;;5048157;28;20372;-33
2024/01/03 14:20:17;;;;;;;;;;;9.40;99.90;;;;;;5051977;28;19925;-33
2024/01/03 14:22:44;;;;;;;;;;;9.40;99.90;;;;;;5051732;28;20438;-35
2024/01/03 14:25:10;;;;;;;;;;;9.40;99.90;;;;;;5051640;28;20331;-33
2024/01/03 14:27:37;;;;;;;;;;;9.40;99.90;;;;;;5050706;28;19925;-34
2024/01/03 14:30:05;;;;;;;;;;;9.40;99.90;;;;;;5050284;28;19925;-34
2024/01/03 14:32:32;;;;;;;;;;;9.30;99.90;;;;;;5051429;28;19931;-35